sensor_id;sensor_type;location;lat;lon;timestamp;P1;durP1;ratioP1;P2;durP2;ratioP2
52798;SDS011;38667;42.872;74.622;2022-09-17T00:00:38;26.58;;;5.70;;
52798;SDS011;38667;42.872;74.622;2022-09-17T00:03:05;24.88;;;5.88;;
52798;SDS011;38667;42.872;74.622;2022-09-17T00:05:33;27.05;;;6.85;;
52798;SDS011;38667;42.872;74.622;2022-09-17T00:08:00;25.60;;;6.18;;
52798;SDS011;38667;42.872;74.622;2022-09-17T00:10:27;17.77;;;5.15;;
52798;SDS011;38667;42.872;74.622;2022-09-17T00:12:53;22.77;;;6.35;;
52798;SDS011;38667;42.872;74.622;2022-09-17T00:15:20;20.58;;;5.57;;
52798;SDS011;38667;42.872;74.622;2022-09-17T00:17:46;26.35;;;6.18;;
52798;SDS011;38667;42.872;74.622;2022-09-17T00:20:17;33.05;;;5.88;;
52798;SDS011;38667;42.872;74.622;2022-09-17T00:22:45;24.60;;;5.53;;
52798;SDS011;38667;42.872;74.622;2022-09-17T00:25:11;25.65;;;5.43;;
52798;SDS011;38667;42.872;74.622;2022-09-17T00:27:38;21.52;;;5.75;;
52798;SDS011;38667;42.872;74.622;2022-09-17T00:30:04;20.83;;;5.85;;
52798;SDS011;38667;42.872;74.622;2022-09-17T00:32:32;15.52;;;5.30;;
52798;SDS011;38667;42.872;74.622;2022-09-17T00:34:58;19.45;;;5.90;;
52798;SDS011;38667;42.872;74.622;2022-09-17T00:37:24;23.40;;;5.80;;
52798;SDS011;38667;42.872;74.622;2022-09-17T00:39:52;20.90;;;6.47;;
52798;SDS011;38667;42.872;74.622;2022-09-17T00:42:18;20.88;;;6.63;;
52798;SDS011;38667;42.872;74.622;2022-09-17T00:44:47;26.13;;;6.25;;
52798;SDS011;38667;42.872;74.622;2022-09-17T00:47:15;27.08;;;5.85;;
52798;SDS011;38667;42.872;74.622;2022-09-17T00:49:56;33.63;;;6.13;;
52798;SDS011;38667;42.872;74.622;2022-09-17T00:52:25;20.55;;;6.10;;
52798;SDS011;38667;42.872;74.622;2022-09-17T00:54:58;22.63;;;6.13;;
52798;SDS011;38667;42.872;74.622;2022-09-17T00:57:28;32.60;;;6.40;;
52798;SDS011;38667;42.872;74.622;2022-09-17T00:59:56;24.80;;;6.00;;
52798;SDS011;38667;42.872;74.622;2022-09-17T01:02:22;22.58;;;5.38;;
52798;SDS011;38667;42.872;74.622;2022-09-17T01:04:50;31.90;;;5.07;;
52798;SDS011;38667;42.872;74.622;2022-09-17T01:07:19;20.52;;;5.35;;
52798;SDS011;38667;42.872;74.622;2022-09-17T01:09:55;24.17;;;4.88;;
52798;SDS011;38667;42.872;74.622;2022-09-17T01:12:30;24.15;;;5.10;;
52798;SDS011;38667;42.872;74.622;2022-09-17T01:15:14;18.88;;;5.05;;
52798;SDS011;38667;42.872;74.622;2022-09-17T01:17:53;27.10;;;4.65;;
52798;SDS011;38667;42.872;74.622;2022-09-17T01:20:42;20.95;;;5.25;;
52798;SDS011;38667;42.872;74.622;2022-09-17T01:26:33;21.23;;;6.20;;
52798;SDS011;38667;42.872;74.622;2022-09-17T01:29:16;29.98;;;5.95;;
52798;SDS011;38667;42.872;74.622;2022-09-17T01:31:54;19.70;;;5.70;;
52798;SDS011;38667;42.872;74.622;2022-09-17T01:34:30;32.80;;;6.53;;
52798;SDS011;38667;42.872;74.622;2022-09-17T01:37:05;22.02;;;5.60;;
52798;SDS011;38667;42.872;74.622;2022-09-17T01:39:41;30.75;;;5.68;;
52798;SDS011;38667;42.872;74.622;2022-09-17T01:42:14;20.90;;;5.97;;
52798;SDS011;38667;42.872;74.622;2022-09-17T01:44:48;24.65;;;5.57;;
52798;SDS011;38667;42.872;74.622;2022-09-17T01:47:20;18.77;;;5.90;;
52798;SDS011;38667;42.872;74.622;2022-09-17T01:49:52;29.48;;;5.80;;
52798;SDS011;38667;42.872;74.622;2022-09-17T01:52:24;26.80;;;6.47;;
52798;SDS011;38667;42.872;74.622;2022-09-17T01:54:53;22.50;;;5.97;;
52798;SDS011;38667;42.872;74.622;2022-09-17T01:57:24;26.33;;;5.80;;
52798;SDS011;38667;42.872;74.622;2022-09-17T01:59:54;30.30;;;6.50;;
52798;SDS011;38667;42.872;74.622;2022-09-17T02:02:28;25.40;;;6.18;;
52798;SDS011;38667;42.872;74.622;2022-09-17T02:04:59;35.67;;;6.35;;
52798;SDS011;38667;42.872;74.622;2022-09-17T02:07:30;23.55;;;6.57;;
52798;SDS011;38667;42.872;74.622;2022-09-17T02:10:04;24.77;;;6.20;;
52798;SDS011;38667;42.872;74.622;2022-09-17T02:12:33;32.72;;;6.20;;
52798;SDS011;38667;42.872;74.622;2022-09-17T02:15:02;32.55;;;6.65;;
52798;SDS011;38667;42.872;74.622;2022-09-17T02:17:36;48.08;;;7.28;;
52798;SDS011;38667;42.872;74.622;2022-09-17T02:20:07;38.50;;;7.43;;
52798;SDS011;38667;42.872;74.622;2022-09-17T02:22:36;26.73;;;7.15;;
52798;SDS011;38667;42.872;74.622;2022-09-17T02:25:07;36.00;;;6.93;;
52798;SDS011;38667;42.872;74.622;2022-09-17T02:27:42;26.65;;;5.90;;
52798;SDS011;38667;42.872;74.622;2022-09-17T02:30:16;33.80;;;6.57;;
52798;SDS011;38667;42.872;74.622;2022-09-17T02:32:44;37.80;;;8.10;;
52798;SDS011;38667;42.872;74.622;2022-09-17T02:35:11;29.95;;;7.38;;
52798;SDS011;38667;42.872;74.622;2022-09-17T02:37:37;35.17;;;8.55;;
52798;SDS011;38667;42.872;74.622;2022-09-17T02:40:04;31.23;;;8.52;;
52798;SDS011;38667;42.872;74.622;2022-09-17T02:42:34;21.92;;;6.30;;
52798;SDS011;38667;42.872;74.622;2022-09-17T02:45:09;18.65;;;6.30;;
52798;SDS011;38667;42.872;74.622;2022-09-17T02:47:55;17.33;;;6.35;;
52798;SDS011;38667;42.872;74.622;2022-09-17T02:50:39;29.20;;;7.35;;
52798;SDS011;38667;42.872;74.622;2022-09-17T02:53:26;19.48;;;7.50;;
52798;SDS011;38667;42.872;74.622;2022-09-17T02:56:01;20.17;;;7.53;;
52798;SDS011;38667;42.872;74.622;2022-09-17T02:58:37;20.58;;;8.85;;
52798;SDS011;38667;42.872;74.622;2022-09-17T03:01:09;25.00;;;8.98;;
52798;SDS011;38667;42.872;74.622;2022-09-17T03:03:43;32.05;;;9.48;;
52798;SDS011;38667;42.872;74.622;2022-09-17T03:06:11;23.35;;;8.82;;
52798;SDS011;38667;42.872;74.622;2022-09-17T03:08:39;26.60;;;7.70;;
52798;SDS011;38667;42.872;74.622;2022-09-17T03:11:06;20.92;;;7.07;;
52798;SDS011;38667;42.872;74.622;2022-09-17T03:13:33;22.67;;;7.55;;
52798;SDS011;38667;42.872;74.622;2022-09-17T03:15:59;27.17;;;8.27;;
52798;SDS011;38667;42.872;74.622;2022-09-17T03:18:26;19.85;;;8.85;;
52798;SDS011;38667;42.872;74.622;2022-09-17T03:20:54;28.88;;;11.70;;
52798;SDS011;38667;42.872;74.622;2022-09-17T03:23:20;31.45;;;13.63;;
52798;SDS011;38667;42.872;74.622;2022-09-17T03:25:46;31.75;;;15.05;;
52798;SDS011;38667;42.872;74.622;2022-09-17T03:28:13;33.65;;;14.68;;
52798;SDS011;38667;42.872;74.622;2022-09-17T03:30:39;34.13;;;14.85;;
52798;SDS011;38667;42.872;74.622;2022-09-17T03:33:06;42.65;;;15.52;;
52798;SDS011;38667;42.872;74.622;2022-09-17T03:35:33;35.80;;;14.68;;
52798;SDS011;38667;42.872;74.622;2022-09-17T03:38:01;31.08;;;12.93;;
52798;SDS011;38667;42.872;74.622;2022-09-17T03:40:27;34.15;;;12.48;;
52798;SDS011;38667;42.872;74.622;2022-09-17T03:42:53;36.22;;;13.05;;
52798;SDS011;38667;42.872;74.622;2022-09-17T03:45:20;29.02;;;11.13;;
52798;SDS011;38667;42.872;74.622;2022-09-17T03:47:46;21.05;;;10.73;;
52798;SDS011;38667;42.872;74.622;2022-09-17T03:50:12;26.92;;;11.38;;
52798;SDS011;38667;42.872;74.622;2022-09-17T03:52:39;24.90;;;9.98;;
52798;SDS011;38667;42.872;74.622;2022-09-17T03:55:08;31.02;;;9.38;;
52798;SDS011;38667;42.872;74.622;2022-09-17T03:57:34;24.95;;;8.63;;
52798;SDS011;38667;42.872;74.622;2022-09-17T04:00:01;26.77;;;7.80;;
52798;SDS011;38667;42.872;74.622;2022-09-17T04:02:29;15.35;;;6.20;;
52798;SDS011;38667;42.872;74.622;2022-09-17T04:04:55;18.63;;;6.10;;
52798;SDS011;38667;42.872;74.622;2022-09-17T04:07:21;29.77;;;7.03;;
52798;SDS011;38667;42.872;74.622;2022-09-17T04:09:48;23.10;;;6.82;;
52798;SDS011;38667;42.872;74.622;2022-09-17T04:12:15;30.00;;;6.82;;
52798;SDS011;38667;42.872;74.622;2022-09-17T04:14:42;24.35;;;8.13;;
52798;SDS011;38667;42.872;74.622;2022-09-17T04:17:08;26.13;;;7.90;;
52798;SDS011;38667;42.872;74.622;2022-09-17T04:19:34;20.90;;;7.13;;
52798;SDS011;38667;42.872;74.622;2022-09-17T04:22:01;19.05;;;7.90;;
52798;SDS011;38667;42.872;74.622;2022-09-17T04:24:27;24.15;;;8.18;;
52798;SDS011;38667;42.872;74.622;2022-09-17T04:26:53;23.40;;;7.55;;
52798;SDS011;38667;42.872;74.622;2022-09-17T04:29:21;21.63;;;7.10;;
52798;SDS011;38667;42.872;74.622;2022-09-17T04:31:47;26.52;;;7.97;;
52798;SDS011;38667;42.872;74.622;2022-09-17T04:34:14;20.95;;;7.93;;
52798;SDS011;38667;42.872;74.622;2022-09-17T04:36:40;25.63;;;8.90;;
52798;SDS011;38667;42.872;74.622;2022-09-17T04:39:07;23.50;;;9.02;;
52798;SDS011;38667;42.872;74.622;2022-09-17T04:41:33;30.65;;;9.60;;
52798;SDS011;38667;42.872;74.622;2022-09-17T04:44:00;29.85;;;10.27;;
52798;SDS011;38667;42.872;74.622;2022-09-17T04:46:28;22.40;;;9.30;;
52798;SDS011;38667;42.872;74.622;2022-09-17T04:48:54;24.85;;;8.75;;
52798;SDS011;38667;42.872;74.622;2022-09-17T04:51:20;23.15;;;8.10;;
52798;SDS011;38667;42.872;74.622;2022-09-17T04:53:47;23.63;;;8.25;;
52798;SDS011;38667;42.872;74.622;2022-09-17T04:56:13;17.05;;;7.03;;
52798;SDS011;38667;42.872;74.622;2022-09-17T04:58:39;20.38;;;8.48;;
52798;SDS011;38667;42.872;74.622;2022-09-17T05:01:07;25.35;;;8.05;;
52798;SDS011;38667;42.872;74.622;2022-09-17T05:03:34;21.42;;;8.10;;
52798;SDS011;38667;42.872;74.622;2022-09-17T05:06:01;24.15;;;8.73;;
52798;SDS011;38667;42.872;74.622;2022-09-17T05:08:27;18.08;;;7.85;;
52798;SDS011;38667;42.872;74.622;2022-09-17T05:10:53;23.13;;;8.02;;
52798;SDS011;38667;42.872;74.622;2022-09-17T05:13:20;16.05;;;7.32;;
52798;SDS011;38667;42.872;74.622;2022-09-17T05:15:46;31.88;;;8.45;;
52798;SDS011;38667;42.872;74.622;2022-09-17T05:18:12;27.92;;;8.20;;
52798;SDS011;38667;42.872;74.622;2022-09-17T05:20:41;28.98;;;8.80;;
52798;SDS011;38667;42.872;74.622;2022-09-17T05:23:07;20.45;;;8.07;;
52798;SDS011;38667;42.872;74.622;2022-09-17T05:25:34;25.85;;;8.20;;
52798;SDS011;38667;42.872;74.622;2022-09-17T05:28:00;26.65;;;8.68;;
52798;SDS011;38667;42.872;74.622;2022-09-17T05:30:26;25.55;;;8.15;;
52798;SDS011;38667;42.872;74.622;2022-09-17T05:33:02;23.98;;;9.23;;
52798;SDS011;38667;42.872;74.622;2022-09-17T05:35:31;19.92;;;7.40;;
52798;SDS011;38667;42.872;74.622;2022-09-17T05:38:00;23.55;;;8.05;;
52798;SDS011;38667;42.872;74.622;2022-09-17T05:40:28;18.17;;;7.65;;
52798;SDS011;38667;42.872;74.622;2022-09-17T05:42:56;16.88;;;7.05;;
52798;SDS011;38667;42.872;74.622;2022-09-17T05:45:23;28.95;;;8.07;;
52798;SDS011;38667;42.872;74.622;2022-09-17T05:47:53;23.02;;;8.30;;
52798;SDS011;38667;42.872;74.622;2022-09-17T05:50:20;22.50;;;7.53;;
52798;SDS011;38667;42.872;74.622;2022-09-17T05:52:46;22.60;;;7.18;;
52798;SDS011;38667;42.872;74.622;2022-09-17T05:55:14;26.48;;;9.45;;
52798;SDS011;38667;42.872;74.622;2022-09-17T05:57:40;14.77;;;6.40;;
52798;SDS011;38667;42.872;74.622;2022-09-17T06:00:07;20.48;;;7.15;;
52798;SDS011;38667;42.872;74.622;2022-09-17T06:02:34;18.73;;;6.30;;
52798;SDS011;38667;42.872;74.622;2022-09-17T06:05:00;18.90;;;7.30;;
52798;SDS011;38667;42.872;74.622;2022-09-17T06:07:27;18.02;;;6.22;;
52798;SDS011;38667;42.872;74.622;2022-09-17T06:09:53;17.15;;;6.53;;
52798;SDS011;38667;42.872;74.622;2022-09-17T06:12:22;16.45;;;6.47;;
52798;SDS011;38667;42.872;74.622;2022-09-17T06:14:48;19.58;;;6.45;;
52798;SDS011;38667;42.872;74.622;2022-09-17T06:17:14;24.10;;;8.25;;
52798;SDS011;38667;42.872;74.622;2022-09-17T06:19:40;20.25;;;7.38;;
52798;SDS011;38667;42.872;74.622;2022-09-17T06:22:07;29.27;;;11.10;;
52798;SDS011;38667;42.872;74.622;2022-09-17T06:24:33;33.47;;;11.75;;
52798;SDS011;38667;42.872;74.622;2022-09-17T06:26:59;35.50;;;15.32;;
52798;SDS011;38667;42.872;74.622;2022-09-17T06:29:27;28.02;;;9.95;;
52798;SDS011;38667;42.872;74.622;2022-09-17T06:31:53;24.92;;;9.90;;
52798;SDS011;38667;42.872;74.622;2022-09-17T06:34:20;38.65;;;14.80;;
52798;SDS011;38667;42.872;74.622;2022-09-17T06:36:47;30.27;;;13.93;;
52798;SDS011;38667;42.872;74.622;2022-09-17T06:39:13;25.05;;;11.23;;
52798;SDS011;38667;42.872;74.622;2022-09-17T06:41:40;21.13;;;8.95;;
52798;SDS011;38667;42.872;74.622;2022-09-17T06:44:06;24.48;;;9.50;;
52798;SDS011;38667;42.872;74.622;2022-09-17T06:46:34;24.88;;;10.13;;
52798;SDS011;38667;42.872;74.622;2022-09-17T06:49:00;24.90;;;10.45;;
52798;SDS011;38667;42.872;74.622;2022-09-17T06:51:27;23.80;;;10.10;;
52798;SDS011;38667;42.872;74.622;2022-09-17T06:53:53;34.13;;;11.60;;
52798;SDS011;38667;42.872;74.622;2022-09-17T06:56:20;23.73;;;8.23;;
52798;SDS011;38667;42.872;74.622;2022-09-17T06:58:46;24.13;;;8.82;;
52798;SDS011;38667;42.872;74.622;2022-09-17T07:01:12;28.25;;;9.60;;
52798;SDS011;38667;42.872;74.622;2022-09-17T07:03:40;22.50;;;9.40;;
52798;SDS011;38667;42.872;74.622;2022-09-17T07:06:07;21.95;;;8.80;;
52798;SDS011;38667;42.872;74.622;2022-09-17T07:08:33;28.08;;;9.77;;
52798;SDS011;38667;42.872;74.622;2022-09-17T07:11:00;31.80;;;11.05;;
52798;SDS011;38667;42.872;74.622;2022-09-17T07:13:26;22.60;;;8.15;;
52798;SDS011;38667;42.872;74.622;2022-09-17T07:15:53;23.60;;;9.32;;
52798;SDS011;38667;42.872;74.622;2022-09-17T07:18:20;23.60;;;9.93;;
52798;SDS011;38667;42.872;74.622;2022-09-17T07:20:52;18.70;;;9.00;;
52798;SDS011;38667;42.872;74.622;2022-09-17T07:23:20;19.38;;;8.90;;
52798;SDS011;38667;42.872;74.622;2022-09-17T07:25:50;21.88;;;8.98;;
52798;SDS011;38667;42.872;74.622;2022-09-17T07:28:17;22.15;;;8.02;;
52798;SDS011;38667;42.872;74.622;2022-09-17T07:30:43;25.15;;;9.00;;
52798;SDS011;38667;42.872;74.622;2022-09-17T07:33:09;22.13;;;7.72;;
52798;SDS011;38667;42.872;74.622;2022-09-17T07:35:36;25.27;;;8.48;;
52798;SDS011;38667;42.872;74.622;2022-09-17T07:38:04;23.55;;;7.47;;
52798;SDS011;38667;42.872;74.622;2022-09-17T07:40:30;23.33;;;5.80;;
52798;SDS011;38667;42.872;74.622;2022-09-17T07:42:56;23.42;;;6.72;;
52798;SDS011;38667;42.872;74.622;2022-09-17T07:45:22;21.77;;;7.05;;
52798;SDS011;38667;42.872;74.622;2022-09-17T07:47:49;18.58;;;7.13;;
52798;SDS011;38667;42.872;74.622;2022-09-17T07:50:15;18.23;;;6.57;;
52798;SDS011;38667;42.872;74.622;2022-09-17T07:52:44;19.02;;;7.15;;
52798;SDS011;38667;42.872;74.622;2022-09-17T07:55:13;22.95;;;7.32;;
52798;SDS011;38667;42.872;74.622;2022-09-17T07:57:39;29.52;;;6.45;;
52798;SDS011;38667;42.872;74.622;2022-09-17T08:00:06;12.38;;;5.40;;
52798;SDS011;38667;42.872;74.622;2022-09-17T08:02:33;22.90;;;6.93;;
52798;SDS011;38667;42.872;74.622;2022-09-17T08:04:59;18.02;;;5.22;;
52798;SDS011;38667;42.872;74.622;2022-09-17T08:07:25;20.05;;;6.13;;
52798;SDS011;38667;42.872;74.622;2022-09-17T08:09:52;22.52;;;5.78;;
52798;SDS011;38667;42.872;74.622;2022-09-17T08:12:19;16.17;;;5.75;;
52798;SDS011;38667;42.872;74.622;2022-09-17T08:14:46;13.13;;;5.13;;
52798;SDS011;38667;42.872;74.622;2022-09-17T08:17:12;13.68;;;5.53;;
52798;SDS011;38667;42.872;74.622;2022-09-17T08:19:38;17.88;;;4.90;;
52798;SDS011;38667;42.872;74.622;2022-09-17T08:22:05;16.65;;;5.63;;
52798;SDS011;38667;42.872;74.622;2022-09-17T08:24:31;18.95;;;6.05;;
52798;SDS011;38667;42.872;74.622;2022-09-17T08:26:57;26.52;;;5.07;;
52798;SDS011;38667;42.872;74.622;2022-09-17T08:29:25;19.88;;;4.35;;
52798;SDS011;38667;42.872;74.622;2022-09-17T08:31:51;17.00;;;4.57;;
52798;SDS011;38667;42.872;74.622;2022-09-17T08:34:18;17.15;;;4.22;;
52798;SDS011;38667;42.872;74.622;2022-09-17T08:36:44;18.13;;;3.90;;
52798;SDS011;38667;42.872;74.622;2022-09-17T08:39:10;17.50;;;3.92;;
52798;SDS011;38667;42.872;74.622;2022-09-17T08:41:41;12.02;;;5.32;;
52798;SDS011;38667;42.872;74.622;2022-09-17T08:44:37;27.67;;;4.75;;
52798;SDS011;38667;42.872;74.622;2022-09-17T08:47:07;21.67;;;4.05;;
52798;SDS011;38667;42.872;74.622;2022-09-17T08:49:40;18.55;;;4.65;;
52798;SDS011;38667;42.872;74.622;2022-09-17T08:52:20;22.25;;;4.55;;
52798;SDS011;38667;42.872;74.622;2022-09-17T08:54:59;14.75;;;4.72;;
52798;SDS011;38667;42.872;74.622;2022-09-17T08:57:33;13.50;;;5.18;;
52798;SDS011;38667;42.872;74.622;2022-09-17T09:00:11;20.95;;;4.78;;
52798;SDS011;38667;42.872;74.622;2022-09-17T09:02:42;15.30;;;4.55;;
52798;SDS011;38667;42.872;74.622;2022-09-17T09:05:24;20.70;;;4.30;;
52798;SDS011;38667;42.872;74.622;2022-09-17T09:07:55;13.25;;;3.90;;
52798;SDS011;38667;42.872;74.622;2022-09-17T09:10:28;13.88;;;4.30;;
52798;SDS011;38667;42.872;74.622;2022-09-17T09:12:57;16.35;;;4.28;;
52798;SDS011;38667;42.872;74.622;2022-09-17T09:15:30;15.10;;;3.80;;
52798;SDS011;38667;42.872;74.622;2022-09-17T09:18:00;11.27;;;4.05;;
52798;SDS011;38667;42.872;74.622;2022-09-17T09:20:38;15.50;;;3.90;;
52798;SDS011;38667;42.872;74.622;2022-09-17T09:23:11;11.52;;;4.03;;
52798;SDS011;38667;42.872;74.622;2022-09-17T09:25:45;17.17;;;4.25;;
52798;SDS011;38667;42.872;74.622;2022-09-17T09:28:38;17.30;;;4.13;;
52798;SDS011;38667;42.872;74.622;2022-09-17T09:31:23;11.93;;;3.42;;
52798;SDS011;38667;42.872;74.622;2022-09-17T09:34:08;13.38;;;3.60;;
52798;SDS011;38667;42.872;74.622;2022-09-17T09:36:36;11.35;;;4.20;;
52798;SDS011;38667;42.872;74.622;2022-09-17T09:39:05;28.20;;;4.85;;
52798;SDS011;38667;42.872;74.622;2022-09-17T09:41:38;12.15;;;4.35;;
52798;SDS011;38667;42.872;74.622;2022-09-17T09:44:10;12.60;;;4.38;;
52798;SDS011;38667;42.872;74.622;2022-09-17T09:46:42;14.40;;;5.07;;
52798;SDS011;38667;42.872;74.622;2022-09-17T09:49:40;11.13;;;4.00;;
52798;SDS011;38667;42.872;74.622;2022-09-17T09:52:20;15.40;;;4.82;;
52798;SDS011;38667;42.872;74.622;2022-09-17T09:54:59;17.35;;;4.40;;
52798;SDS011;38667;42.872;74.622;2022-09-17T09:57:42;10.70;;;4.13;;
52798;SDS011;38667;42.872;74.622;2022-09-17T10:00:24;21.25;;;4.43;;
52798;SDS011;38667;42.872;74.622;2022-09-17T10:02:55;13.80;;;4.15;;
52798;SDS011;38667;42.872;74.622;2022-09-17T10:05:26;15.38;;;4.43;;
52798;SDS011;38667;42.872;74.622;2022-09-17T10:07:52;15.48;;;4.38;;
52798;SDS011;38667;42.872;74.622;2022-09-17T10:10:19;13.45;;;4.30;;
52798;SDS011;38667;42.872;74.622;2022-09-17T10:12:45;15.18;;;4.40;;
52798;SDS011;38667;42.872;74.622;2022-09-17T10:15:22;10.18;;;3.72;;
52798;SDS011;38667;42.872;74.622;2022-09-17T10:17:55;14.27;;;4.43;;
52798;SDS011;38667;42.872;74.622;2022-09-17T10:20:36;10.10;;;4.78;;
52798;SDS011;38667;42.872;74.622;2022-09-17T10:23:14;11.50;;;4.45;;
52798;SDS011;38667;42.872;74.622;2022-09-17T10:25:41;14.32;;;4.40;;
52798;SDS011;38667;42.872;74.622;2022-09-17T10:28:16;11.85;;;4.05;;
52798;SDS011;38667;42.872;74.622;2022-09-17T10:30:56;20.95;;;5.00;;
52798;SDS011;38667;42.872;74.622;2022-09-17T10:33:26;12.95;;;4.22;;
52798;SDS011;38667;42.872;74.622;2022-09-17T10:35:58;16.00;;;4.88;;
52798;SDS011;38667;42.872;74.622;2022-09-17T10:38:26;12.35;;;4.35;;
52798;SDS011;38667;42.872;74.622;2022-09-17T10:41:06;11.32;;;5.10;;
52798;SDS011;38667;42.872;74.622;2022-09-17T10:43:42;18.00;;;5.00;;
52798;SDS011;38667;42.872;74.622;2022-09-17T10:46:09;12.35;;;4.38;;
52798;SDS011;38667;42.872;74.622;2022-09-17T10:48:41;13.80;;;4.85;;
52798;SDS011;38667;42.872;74.622;2022-09-17T10:51:10;15.82;;;4.00;;
52798;SDS011;38667;42.872;74.622;2022-09-17T10:56:32;15.52;;;5.07;;
52798;SDS011;38667;42.872;74.622;2022-09-17T10:59:01;13.80;;;4.53;;
52798;SDS011;38667;42.872;74.622;2022-09-17T11:01:46;14.05;;;4.72;;
52798;SDS011;38667;42.872;74.622;2022-09-17T11:04:25;12.32;;;4.53;;
52798;SDS011;38667;42.872;74.622;2022-09-17T11:10:09;16.08;;;4.45;;
52798;SDS011;38667;42.872;74.622;2022-09-17T11:12:47;14.30;;;4.45;;
52798;SDS011;38667;42.872;74.622;2022-09-17T11:15:27;14.00;;;4.65;;
52798;SDS011;38667;42.872;74.622;2022-09-17T11:21:10;14.63;;;4.95;;
52798;SDS011;38667;42.872;74.622;2022-09-17T11:24:02;14.73;;;4.35;;
52798;SDS011;38667;42.872;74.622;2022-09-17T11:26:50;15.07;;;4.82;;
52798;SDS011;38667;42.872;74.622;2022-09-17T11:29:29;10.95;;;4.13;;
52798;SDS011;38667;42.872;74.622;2022-09-17T11:32:20;14.10;;;3.88;;
52798;SDS011;38667;42.872;74.622;2022-09-17T11:34:59;19.35;;;5.05;;
52798;SDS011;38667;42.872;74.622;2022-09-17T11:37:30;7.70;;;4.25;;
52798;SDS011;38667;42.872;74.622;2022-09-17T11:40:02;8.25;;;4.38;;
52798;SDS011;38667;42.872;74.622;2022-09-17T11:42:37;11.27;;;4.38;;
52798;SDS011;38667;42.872;74.622;2022-09-17T11:45:12;21.40;;;4.28;;
52798;SDS011;38667;42.872;74.622;2022-09-17T11:47:43;15.65;;;4.35;;
52798;SDS011;38667;42.872;74.622;2022-09-17T11:50:16;15.07;;;4.20;;
52798;SDS011;38667;42.872;74.622;2022-09-17T11:52:50;12.05;;;4.05;;
52798;SDS011;38667;42.872;74.622;2022-09-17T11:55:28;12.35;;;4.60;;
52798;SDS011;38667;42.872;74.622;2022-09-17T11:57:58;12.02;;;4.35;;
52798;SDS011;38667;42.872;74.622;2022-09-17T12:00:33;14.70;;;4.22;;
52798;SDS011;38667;42.872;74.622;2022-09-17T12:03:08;11.57;;;4.00;;
52798;SDS011;38667;42.872;74.622;2022-09-17T12:05:40;10.38;;;3.55;;
52798;SDS011;38667;42.872;74.622;2022-09-17T12:08:13;17.73;;;4.93;;
52798;SDS011;38667;42.872;74.622;2022-09-17T12:10:44;19.65;;;5.40;;
52798;SDS011;38667;42.872;74.622;2022-09-17T12:13:17;20.17;;;7.35;;
52798;SDS011;38667;42.872;74.622;2022-09-17T12:15:53;20.48;;;6.65;;
52798;SDS011;38667;42.872;74.622;2022-09-17T12:18:31;22.40;;;7.65;;
52798;SDS011;38667;42.872;74.622;2022-09-17T12:21:07;18.48;;;6.70;;
52798;SDS011;38667;42.872;74.622;2022-09-17T12:23:42;20.77;;;7.00;;
52798;SDS011;38667;42.872;74.622;2022-09-17T12:26:14;25.58;;;7.18;;
52798;SDS011;38667;42.872;74.622;2022-09-17T12:29:02;27.33;;;7.80;;
52798;SDS011;38667;42.872;74.622;2022-09-17T12:31:34;21.58;;;7.80;;
52798;SDS011;38667;42.872;74.622;2022-09-17T12:34:15;26.05;;;9.02;;
52798;SDS011;38667;42.872;74.622;2022-09-17T12:36:53;29.20;;;10.25;;
52798;SDS011;38667;42.872;74.622;2022-09-17T12:48:37;22.88;;;7.80;;
52798;SDS011;38667;42.872;74.622;2022-09-17T12:51:20;21.13;;;6.78;;
52798;SDS011;38667;42.872;74.622;2022-09-17T12:54:00;20.05;;;7.40;;
52798;SDS011;38667;42.872;74.622;2022-09-17T12:56:39;22.00;;;6.20;;
52798;SDS011;38667;42.872;74.622;2022-09-17T12:59:18;20.02;;;7.13;;
52798;SDS011;38667;42.872;74.622;2022-09-17T13:01:51;15.57;;;6.85;;
52798;SDS011;38667;42.872;74.622;2022-09-17T13:04:34;20.27;;;7.50;;
52798;SDS011;38667;42.872;74.622;2022-09-17T13:07:30;20.95;;;7.60;;
52798;SDS011;38667;42.872;74.622;2022-09-17T13:10:32;22.35;;;7.38;;
52798;SDS011;38667;42.872;74.622;2022-09-17T13:13:09;23.35;;;7.25;;
52798;SDS011;38667;42.872;74.622;2022-09-17T13:15:51;16.73;;;7.20;;
52798;SDS011;38667;42.872;74.622;2022-09-17T13:18:26;18.45;;;7.07;;
52798;SDS011;38667;42.872;74.622;2022-09-17T13:20:59;13.48;;;6.70;;
52798;SDS011;38667;42.872;74.622;2022-09-17T13:23:34;24.60;;;6.32;;
52798;SDS011;38667;42.872;74.622;2022-09-17T13:26:05;21.20;;;7.05;;
52798;SDS011;38667;42.872;74.622;2022-09-17T13:28:36;26.75;;;6.25;;
52798;SDS011;38667;42.872;74.622;2022-09-17T13:31:08;16.42;;;5.18;;
52798;SDS011;38667;42.872;74.622;2022-09-17T13:33:50;20.20;;;5.72;;
52798;SDS011;38667;42.872;74.622;2022-09-17T13:39:11;19.55;;;5.57;;
52798;SDS011;38667;42.872;74.622;2022-09-17T13:42:04;19.48;;;5.30;;
52798;SDS011;38667;42.872;74.622;2022-09-17T13:44:35;13.82;;;5.18;;
52798;SDS011;38667;42.872;74.622;2022-09-17T13:47:10;12.85;;;4.18;;
52798;SDS011;38667;42.872;74.622;2022-09-17T13:49:48;14.90;;;4.97;;
52798;SDS011;38667;42.872;74.622;2022-09-17T13:55:30;14.75;;;4.57;;
52798;SDS011;38667;42.872;74.622;2022-09-17T13:57:59;14.82;;;4.68;;
52798;SDS011;38667;42.872;74.622;2022-09-17T14:12:55;34.25;;;13.90;;
52798;SDS011;38667;42.872;74.622;2022-09-17T14:15:35;32.92;;;12.77;;
52798;SDS011;38667;42.872;74.622;2022-09-17T14:18:33;35.85;;;11.82;;
52798;SDS011;38667;42.872;74.622;2022-09-17T14:21:10;34.05;;;12.10;;
52798;SDS011;38667;42.872;74.622;2022-09-17T14:23:43;37.47;;;11.90;;
52798;SDS011;38667;42.872;74.622;2022-09-17T14:26:17;32.17;;;11.95;;
52798;SDS011;38667;42.872;74.622;2022-09-17T14:28:57;40.92;;;12.68;;
52798;SDS011;38667;42.872;74.622;2022-09-17T14:31:30;42.63;;;14.07;;
52798;SDS011;38667;42.872;74.622;2022-09-17T14:34:01;30.70;;;13.65;;
52798;SDS011;38667;42.872;74.622;2022-09-17T14:36:29;42.47;;;13.15;;
52798;SDS011;38667;42.872;74.622;2022-09-17T14:38:59;38.42;;;11.68;;
52798;SDS011;38667;42.872;74.622;2022-09-17T14:41:27;30.88;;;10.98;;
52798;SDS011;38667;42.872;74.622;2022-09-17T14:43:59;30.70;;;11.30;;
52798;SDS011;38667;42.872;74.622;2022-09-17T14:46:29;38.97;;;11.32;;
52798;SDS011;38667;42.872;74.622;2022-09-17T14:49:12;28.58;;;10.27;;
52798;SDS011;38667;42.872;74.622;2022-09-17T14:51:39;35.85;;;12.10;;
52798;SDS011;38667;42.872;74.622;2022-09-17T14:54:06;31.20;;;11.02;;
52798;SDS011;38667;42.872;74.622;2022-09-17T14:56:41;37.65;;;11.98;;
52798;SDS011;38667;42.872;74.622;2022-09-17T14:59:22;38.65;;;13.40;;
52798;SDS011;38667;42.872;74.622;2022-09-17T15:01:53;23.73;;;10.35;;
52798;SDS011;38667;42.872;74.622;2022-09-17T15:04:20;28.67;;;10.23;;
52798;SDS011;38667;42.872;74.622;2022-09-17T15:06:48;26.73;;;9.38;;
52798;SDS011;38667;42.872;74.622;2022-09-17T15:09:15;20.08;;;8.45;;
52798;SDS011;38667;42.872;74.622;2022-09-17T15:11:43;30.15;;;9.07;;
52798;SDS011;38667;42.872;74.622;2022-09-17T15:14:14;29.33;;;9.73;;
52798;SDS011;38667;42.872;74.622;2022-09-17T15:16:47;32.78;;;10.15;;
52798;SDS011;38667;42.872;74.622;2022-09-17T15:19:16;33.63;;;9.88;;
52798;SDS011;38667;42.872;74.622;2022-09-17T15:21:47;32.70;;;9.52;;
52798;SDS011;38667;42.872;74.622;2022-09-17T15:24:17;30.25;;;10.15;;